Time;durP1;ratioP1;P1;durP2;ratioP2;P2;SDS_P1;SDS_P2;PMS_P1;PMS_P2;Temp;Humidity;BMP_temperature;BMP_pressure;BME280_temperature;BME280_humidity;BME280_pressure;Samples;Min_cycle;Max_cycle;Signal;HPM_P1;HPM_P2
2023/01/15 00:01:00;;;;;;;9.50;4.90;;;2.80;99.90;;;;;;5097124;28;20530;-72
2023/01/15 00:03:26;;;;;;;6.85;3.28;;;2.80;99.90;;;;;;5090419;28;20027;-73
2023/01/15 00:05:52;;;;;;;7.30;3.58;;;2.70;99.90;;;;;;5104338;28;20024;-71
2023/01/15 00:08:17;;;;;;;7.38;3.80;;;2.70;99.90;;;;;;5093161;28;20081;-72
2023/01/15 00:10:43;;;;;;;9.05;4.13;;;2.80;99.90;;;;;;5098317;28;20386;-72
2023/01/15 00:13:09;;;;;;;7.03;3.70;;;2.80;99.90;;;;;;5099065;27;20062;-72
2023/01/15 00:15:35;;;;;;;10.00;3.75;;;2.90;99.90;;;;;;5090969;28;20107;-72
2023/01/15 00:18:01;;;;;;;9.35;5.30;;;2.90;99.90;;;;;;5095974;28;20498;-72
2023/01/15 00:20:27;;;;;;;10.68;5.60;;;2.90;99.90;;;;;;5099218;28;20095;-72
2023/01/15 00:22:52;;;;;;;8.52;5.15;;;2.80;99.90;;;;;;5106224;28;20107;-72
2023/01/15 00:28:03;;;;;;;10.23;3.83;;;2.90;99.90;;;;;;5094646;28;20097;-72
2023/01/15 00:30:28;;;;;;;6.47;3.28;;;2.90;99.90;;;;;;5095746;28;20019;-72
2023/01/15 00:32:56;;;;;;;5.95;3.10;;;2.90;99.90;;;;;;5096204;28;20036;-72
2023/01/15 00:35:22;;;;;;;8.32;3.67;;;3.00;99.90;;;;;;5098875;28;20108;-72
2023/01/15 00:37:49;;;;;;;8.50;4.90;;;3.10;99.90;;;;;;5098013;28;20085;-72
2023/01/15 00:40:16;;;;;;;11.38;4.47;;;3.00;99.90;;;;;;5097385;28;20031;-72
2023/01/15 00:42:42;;;;;;;9.30;4.20;;;3.00;99.90;;;;;;5096827;28;20476;-72
2023/01/15 00:45:09;;;;;;;6.95;3.88;;;3.00;99.90;;;;;;5096735;28;20040;-72
2023/01/15 00:47:43;;;;;;;7.25;3.65;;;3.00;99.90;;;;;;5097964;28;20032;-72
2023/01/15 00:50:11;;;;;;;7.25;3.40;;;2.90;99.90;;;;;;5094435;28;20638;-72
2023/01/15 00:52:37;;;;;;;7.25;3.10;;;3.00;99.90;;;;;;5097580;28;20137;-72
2023/01/15 00:55:04;;;;;;;5.75;3.33;;;3.00;99.90;;;;;;5097367;28;20028;-72
2023/01/15 00:57:30;;;;;;;7.93;3.20;;;3.00;99.90;;;;;;5100351;28;20092;-72
2023/01/15 00:59:55;;;;;;;8.13;4.47;;;2.90;99.90;;;;;;5097036;28;20027;-72
2023/01/15 01:02:21;;;;;;;6.05;3.15;;;3.00;99.90;;;;;;5097388;28;20039;-72
2023/01/15 01:04:47;;;;;;;8.20;4.25;;;3.00;99.90;;;;;;5101919;27;20030;-72
2023/01/15 01:07:12;;;;;;;9.82;4.35;;;3.10;99.90;;;;;;5095461;28;20032;-72
2023/01/15 01:09:38;;;;;;;7.40;3.15;;;3.00;99.90;;;;;;5094809;28;20032;-72
2023/01/15 01:12:04;;;;;;;7.55;3.25;;;3.10;99.90;;;;;;5096755;28;20034;-72
2023/01/15 01:14:30;;;;;;;6.80;3.00;;;2.90;99.90;;;;;;5094909;28;20024;-72
2023/01/15 01:16:55;;;;;;;7.45;3.92;;;3.00;99.90;;;;;;5099911;27;20508;-72
2023/01/15 01:19:23;;;;;;;6.32;3.85;;;2.90;99.90;;;;;;5097866;28;20817;-72
2023/01/15 01:21:49;;;;;;;7.63;3.90;;;2.90;99.90;;;;;;5095721;28;20031;-72
2023/01/15 01:24:21;;;;;;;6.50;3.85;;;3.00;99.90;;;;;;5098321;28;20028;-72
2023/01/15 01:26:48;;;;;;;7.72;4.15;;;3.00;99.90;;;;;;5097455;28;20031;-71
2023/01/15 01:29:23;;;;;;;7.28;3.35;;;3.10;99.90;;;;;;5095494;28;20023;-72
2023/01/15 01:31:50;;;;;;;;;;;3.00;99.90;;;;;;5095462;28;20019;-72
2023/01/15 01:34:15;;;;;;;6.57;3.90;;;3.00;99.90;;;;;;5099627;28;20810;-72
2023/01/15 01:36:43;;;;;;;8.73;3.70;;;3.10;99.90;;;;;;5099855;28;20051;-72
2023/01/15 01:39:14;;;;;;;7.78;3.45;;;3.10;99.90;;;;;;5096843;28;20606;-72
2023/01/15 01:41:39;;;;;;;8.02;3.92;;;3.10;99.90;;;;;;5095667;28;20057;-72
2023/01/15 01:44:26;;;;;;;8.57;4.35;;;3.00;99.90;;;;;;5098571;28;20066;-72
2023/01/15 01:46:54;;;;;;;8.77;4.15;;;3.00;99.90;;;;;;5096714;28;20040;-72
2023/01/15 01:49:22;;;;;;;7.68;4.05;;;3.00;99.90;;;;;;5097991;28;20035;-72
2023/01/15 01:51:58;;;;;;;6.72;3.75;;;3.00;99.90;;;;;;5093607;28;20454;-72
2023/01/15 01:54:25;;;;;;;7.35;4.13;;;2.90;99.90;;;;;;5096605;28;20034;-72
2023/01/15 01:56:52;;;;;;;8.63;4.63;;;2.90;99.90;;;;;;5096175;28;20812;-72
2023/01/15 01:59:19;;;;;;;8.45;4.38;;;3.00;99.90;;;;;;5095845;28;20020;-72
2023/01/15 02:01:46;;;;;;;8.23;4.43;;;3.10;99.90;;;;;;5096726;28;20040;-72
2023/01/15 02:04:12;;;;;;;6.47;3.70;;;3.10;99.90;;;;;;5100330;28;20081;-72
2023/01/15 02:06:41;;;;;;;7.40;3.35;;;2.90;99.90;;;;;;5097370;28;20023;-72
2023/01/15 02:09:07;;;;;;;7.63;3.53;;;3.00;99.90;;;;;;5096635;28;20042;-72
2023/01/15 02:11:33;;;;;;;9.70;3.58;;;2.90;99.90;;;;;;5097062;28;20482;-72
2023/01/15 02:14:16;;;;;;;7.53;4.03;;;2.90;99.90;;;;;;5097798;28;20110;-72
2023/01/15 02:16:45;;;;;;;8.27;3.42;;;3.10;99.90;;;;;;5096362;28;20386;-72
2023/01/15 02:19:20;;;;;;;6.32;3.20;;;3.10;99.90;;;;;;5095599;28;20032;-72
2023/01/15 02:22:04;;;;;;;;;;;3.10;99.90;;;;;;5098772;28;20035;-72
2023/01/15 02:24:41;;;;;;;8.27;3.20;;;3.10;99.90;;;;;;5098955;28;19994;-72
2023/01/15 02:27:15;;;;;;;5.60;3.28;;;3.20;99.90;;;;;;5094873;28;20035;-72
2023/01/15 02:30:00;;;;;;;7.88;4.57;;;3.10;99.90;;;;;;5096317;28;20139;-72
2023/01/15 02:32:37;;;;;;;6.75;4.15;;;3.10;99.90;;;;;;5097728;28;20025;-72
2023/01/15 02:35:22;;;;;;;10.18;4.85;;;3.00;99.90;;;;;;5095730;28;20627;-72
2023/01/15 02:37:52;;;;;;;7.22;3.78;;;3.00;99.90;;;;;;5096930;28;20043;-72
2023/01/15 02:40:22;;;;;;;7.18;3.83;;;3.00;99.90;;;;;;5094463;28;20028;-72
2023/01/15 02:42:49;;;;;;;7.28;4.15;;;2.90;99.90;;;;;;5098769;28;20393;-72
2023/01/15 02:45:26;;;;;;;7.68;4.07;;;2.90;99.90;;;;;;5096754;28;20595;-72
2023/01/15 02:47:59;;;;;;;6.93;3.72;;;2.80;99.90;;;;;;5097022;28;20051;-72
2023/01/15 02:50:30;;;;;;;8.32;4.00;;;2.90;99.90;;;;;;5094864;28;20020;-72
2023/01/15 02:53:04;;;;;;;6.88;3.55;;;2.90;99.90;;;;;;5094622;28;20504;-72
2023/01/15 02:55:34;;;;;;;6.38;3.95;;;2.90;99.90;;;;;;5095293;28;20503;-72
2023/01/15 02:58:04;;;;;;;8.35;3.80;;;2.90;99.90;;;;;;5097946;28;20032;-72
2023/01/15 03:00:34;;;;;;;8.57;4.03;;;2.90;99.90;;;;;;5096895;28;20026;-72
2023/01/15 03:03:15;;;;;;;11.18;3.80;;;3.00;99.90;;;;;;5093962;28;20032;-72
2023/01/15 03:06:09;;;;;;;8.48;3.63;;;3.10;99.90;;;;;;5096871;28;20039;-72
2023/01/15 03:08:36;;;;;;;8.13;3.80;;;3.10;99.90;;;;;;5095210;28;20030;-72
2023/01/15 03:11:08;;;;;;;6.88;3.60;;;3.10;99.90;;;;;;5096888;28;20039;-72
2023/01/15 03:14:00;;;;;;;10.73;5.32;;;3.10;99.90;;;;;;5097441;28;20024;-72
2023/01/15 03:16:38;;;;;;;14.20;6.53;;;3.00;99.90;;;;;;5094268;28;20035;-72
2023/01/15 03:19:17;;;;;;;11.73;6.47;;;2.90;99.90;;;;;;5098206;28;20032;-72
2023/01/15 03:21:50;;;;;;;9.98;5.20;;;2.80;99.90;;;;;;5096890;28;20027;-72
2023/01/15 03:24:23;;;;;;;8.02;4.25;;;2.80;99.90;;;;;;5093209;28;20054;-72
2023/01/15 03:26:48;;;;;;;7.63;3.90;;;2.90;99.90;;;;;;5098501;28;20028;-72
2023/01/15 03:29:15;;;;;;;9.68;4.28;;;3.00;99.90;;;;;;5095622;28;20028;-72
2023/01/15 03:31:41;;;;;;;9.00;3.35;;;3.00;99.90;;;;;;5096292;28;20035;-72
2023/01/15 03:34:07;;;;;;;6.97;4.53;;;2.90;99.90;;;;;;5095674;28;20123;-72
2023/01/15 03:36:34;;;;;;;9.23;3.80;;;2.80;99.90;;;;;;5094638;28;20048;-72
2023/01/15 03:38:59;;;;;;;8.43;4.22;;;2.80;99.90;;;;;;5094810;28;20084;-72
2023/01/15 03:41:46;;;;;;;10.10;4.10;;;2.70;99.90;;;;;;5095652;28;20035;-72
2023/01/15 03:44:48;;;;;;;9.02;5.15;;;2.70;99.90;;;;;;5098405;28;20111;-72
2023/01/15 03:47:58;;;;;;;8.57;4.25;;;2.90;99.90;;;;;;5092594;28;20066;-72
2023/01/15 03:50:46;;;;;;;6.43;3.75;;;2.90;99.90;;;;;;5078260;28;20047;-72
2023/01/15 03:53:22;;;;;;;9.80;4.10;;;3.00;99.90;;;;;;5095216;28;20059;-71
2023/01/15 03:55:56;;;;;;;8.93;3.63;;;2.90;99.90;;;;;;5098656;28;20397;-71
2023/01/15 03:58:33;;;;;;;8.10;3.63;;;2.80;99.90;;;;;;5099529;28;20022;-71
2023/01/15 04:01:01;;;;;;;7.40;3.67;;;2.90;99.90;;;;;;5097723;28;20028;-71
2023/01/15 04:03:31;;;;;;;9.57;4.38;;;3.00;99.90;;;;;;5094711;28;20081;-71
2023/01/15 04:06:00;;;;;;;6.03;3.53;;;3.20;99.90;;;;;;5100994;28;20055;-71
2023/01/15 04:08:30;;;;;;;9.35;3.90;;;3.20;99.90;;;;;;5095941;28;20462;-71
2023/01/15 04:11:01;;;;;;;8.25;4.43;;;3.20;99.90;;;;;;5099082;28;20023;-71
2023/01/15 04:13:27;;;;;;;7.45;4.28;;;3.10;99.90;;;;;;5096513;28;20103;-71
2023/01/15 04:15:53;;;;;;;7.90;3.20;;;3.10;99.90;;;;;;5100398;28;20034;-71
2023/01/15 04:18:19;;;;;;;11.20;4.30;;;3.00;99.90;;;;;;5092942;28;20032;-71
2023/01/15 04:20:45;;;;;;;6.45;3.40;;;3.00;99.90;;;;;;5091683;28;20031;-70
2023/01/15 04:23:11;;;;;;;8.88;4.70;;;2.90;99.90;;;;;;5098837;28;20119;-71
2023/01/15 04:25:37;;;;;;;10.07;4.15;;;2.80;99.90;;;;;;5092166;28;20051;-71
2023/01/15 04:28:03;;;;;;;8.00;3.45;;;2.80;99.90;;;;;;5089759;27;20426;-71
2023/01/15 04:30:28;;;;;;;5.88;3.53;;;2.80;99.90;;;;;;5103152;27;20116;-71
2023/01/15 04:32:54;;;;;;;8.25;3.95;;;2.80;99.90;;;;;;5093603;27;20042;-71
2023/01/15 04:35:20;;;;;;;8.15;3.92;;;2.70;99.90;;;;;;5103503;28;20039;-71
2023/01/15 04:37:46;;;;;;;7.78;3.60;;;2.70;99.90;;;;;;5088589;28;20067;-71
2023/01/15 04:45:43;;;;;;;8.10;4.57;;;2.70;99.90;;;;;;5086367;28;20094;-71
2023/01/15 04:48:08;;;;;;;7.90;4.32;;;2.70;99.90;;;;;;5083949;28;20043;-71
2023/01/15 04:50:34;;;;;;;8.98;4.25;;;2.80;99.90;;;;;;5098966;28;20035;-71
2023/01/15 04:53:00;;;;;;;6.57;3.53;;;2.80;99.90;;;;;;5089765;27;20426;-71
2023/01/15 04:55:25;;;;;;;7.20;3.28;;;2.80;99.90;;;;;;5089167;28;20062;-71
2023/01/15 04:57:51;;;;;;;5.70;3.15;;;2.90;99.90;;;;;;5091877;28;20147;-70
2023/01/15 05:00:17;;;;;;;5.78;3.60;;;2.90;99.90;;;;;;5095578;28;20055;-71
2023/01/15 05:02:43;;;;;;;5.50;3.15;;;2.80;99.90;;;;;;5085056;28;20664;-71
2023/01/15 05:05:09;;;;;;;7.03;3.40;;;2.90;99.90;;;;;;5094463;28;20035;-71
2023/01/15 05:07:34;;;;;;;7.57;3.72;;;3.00;99.90;;;;;;5092593;28;20081;-71
2023/01/15 05:10:00;;;;;;;7.93;3.85;;;3.10;99.90;;;;;;5102089;28;20077;-71
2023/01/15 05:12:26;;;;;;;7.63;3.88;;;3.00;99.90;;;;;;5100957;28;20077;-71
2023/01/15 05:14:51;;;;;;;6.88;3.53;;;3.00;99.90;;;;;;5094297;28;20035;-71
2023/01/15 05:17:17;;;;;;;7.55;3.72;;;3.00;99.90;;;;;;5097593;28;20098;-71
2023/01/15 05:19:43;;;;;;;9.10;3.42;;;2.90;99.90;;;;;;5094513;28;20686;-71
2023/01/15 05:22:09;;;;;;;7.30;3.72;;;2.80;99.90;;;;;;5096779;28;20485;-71
2023/01/15 05:24:35;;;;;;;7.60;4.22;;;2.80;99.90;;;;;;5099071;28;20052;-71
2023/01/15 05:27:01;;;;;;;6.95;3.88;;;2.90;99.90;;;;;;5096159;28;20074;-70
2023/01/15 05:29:27;;;;;;;7.30;3.92;;;2.90;99.90;;;;;;5097021;28;20045;-71
2023/01/15 05:31:52;;;;;;;7.03;3.75;;;2.80;99.90;;;;;;5102508;28;20062;-71
2023/01/15 05:34:18;;;;;;;9.35;4.55;;;2.90;99.90;;;;;;5089937;28;20036;-71
2023/01/15 05:36:44;;;;;;;7.18;4.13;;;2.90;99.90;;;;;;5092331;28;20055;-71
2023/01/15 05:39:10;;;;;;;8.57;3.65;;;2.70;99.90;;;;;;5082450;28;20024;-71
2023/01/15 05:41:47;;;;;;;10.82;4.25;;;2.80;99.90;;;;;;5094916;28;20027;-71
2023/01/15 05:44:15;;;;;;;7.78;3.95;;;2.80;99.90;;;;;;5097205;28;20076;-71
2023/01/15 05:46:43;;;;;;;6.70;3.72;;;2.80;99.90;;;;;;5099793;28;20023;-71
2023/01/15 05:49:14;;;;;;;6.47;3.40;;;2.70;99.90;;;;;;5086193;28;20020;-71
2023/01/15 05:51:40;;;;;;;7.18;3.15;;;2.80;99.90;;;;;;5087563;28;20074;-71
2023/01/15 05:54:09;;;;;;;8.05;3.65;;;2.80;99.90;;;;;;5092533;28;20032;-71
2023/01/15 05:56:35;;;;;;;6.22;3.15;;;3.00;99.90;;;;;;5095259;28;20414;-71
2023/01/15 05:59:02;;;;;;;7.45;3.65;;;3.00;99.90;;;;;;5095396;28;20500;-71
2023/01/15 06:01:27;;;;;;;6.28;3.63;;;2.90;99.90;;;;;;5093287;28;21361;-71
2023/01/15 06:03:54;;;;;;;5.85;3.00;;;2.90;99.90;;;;;;5091424;28;20024;-71
2023/01/15 06:06:20;;;;;;;7.82;3.55;;;2.90;99.90;;;;;;5095282;28;20087;-71
2023/01/15 06:08:46;;;;;;;7.30;3.70;;;2.90;99.90;;;;;;5098027;28;20030;-71
2023/01/15 06:11:28;;;;;;;7.25;3.60;;;3.00;99.90;;;;;;5088909;28;20879;-71
2023/01/15 06:13:54;;;;;;;9.95;7.07;;;3.00;99.90;;;;;;5089747;28;20024;-71
2023/01/15 06:16:21;;;;;;;7.82;5.60;;;2.90;99.90;;;;;;5093590;28;20035;-71
2023/01/15 06:18:47;;;;;;;7.63;4.10;;;3.00;99.90;;;;;;5100508;28;20076;-71
2023/01/15 06:21:13;;;;;;;5.78;3.10;;;3.00;99.90;;;;;;5082073;28;20032;-71
2023/01/15 06:23:39;;;;;;;5.13;3.20;;;2.80;99.90;;;;;;5089418;28;20035;-71
2023/01/15 06:26:12;;;;;;;6.18;4.00;;;2.90;99.90;;;;;;5095358;28;20066;-71
2023/01/15 06:28:38;;;;;;;12.52;5.95;;;3.00;99.90;;;;;;5095080;28;20020;-72
2023/01/15 06:31:05;;;;;;;9.77;4.30;;;3.10;99.90;;;;;;5093068;28;20031;-71
2023/01/15 06:33:31;;;;;;;7.55;3.65;;;2.80;99.90;;;;;;5087621;28;20024;-71
2023/01/15 06:35:56;;;;;;;7.47;3.90;;;2.70;99.90;;;;;;5089776;28;20058;-73
2023/01/15 06:38:23;;;;;;;7.28;4.15;;;2.80;99.90;;;;;;5081944;28;20051;-73
2023/01/15 06:40:49;;;;;;;8.45;4.65;;;2.90;99.90;;;;;;5089515;28;20027;-73
2023/01/15 06:48:43;;;;;;;9.05;4.03;;;2.80;99.90;;;;;;5089605;28;21208;-73
2023/01/15 06:51:09;;;;;;;7.50;4.25;;;2.70;99.90;;;;;;5085312;28;20497;-73
2023/01/15 06:53:34;;;;;;;5.55;2.88;;;2.70;99.90;;;;;;5089395;28;20092;-71
2023/01/15 06:56:00;;;;;;;9.07;4.47;;;2.80;99.90;;;;;;5091100;28;20036;-71
2023/01/15 06:58:26;;;;;;;6.03;4.13;;;2.80;99.90;;;;;;5087793;28;20023;-73
2023/01/15 07:00:54;;;;;;;12.48;7.47;;;2.80;99.90;;;;;;5080366;28;20486;-73
2023/01/15 07:03:20;;;;;;;10.32;5.15;;;2.80;99.90;;;;;;5088651;28;20088;-73
2023/01/15 07:05:46;;;;;;;10.07;5.53;;;2.70;99.90;;;;;;5083420;28;20063;-73
2023/01/15 07:08:11;;;;;;;14.02;7.55;;;2.60;99.90;;;;;;5088388;28;20056;-73
2023/01/15 07:10:37;;;;;;;13.18;6.93;;;2.90;99.90;;;;;;5092553;28;20027;-73
2023/01/15 07:13:03;;;;;;;9.43;5.15;;;2.90;99.90;;;;;;5091766;28;20035;-73
2023/01/15 07:15:30;;;;;;;7.63;3.92;;;2.90;99.90;;;;;;5097330;28;20054;-73
2023/01/15 07:17:56;;;;;;;8.63;3.92;;;2.90;99.90;;;;;;5100341;28;20055;-73
2023/01/15 07:20:22;;;;;;;9.90;4.35;;;3.00;99.90;;;;;;5093288;28;20032;-73
2023/01/15 07:22:49;;;;;;;8.40;4.25;;;3.00;99.90;;;;;;5086839;28;20028;-73
2023/01/15 07:25:15;;;;;;;11.32;4.95;;;3.00;99.90;;;;;;5081517;28;20140;-73
2023/01/15 07:27:40;;;;;;;9.00;5.47;;;3.00;99.90;;;;;;5088807;28;20024;-73
2023/01/15 07:30:07;;;;;;;11.15;5.68;;;2.90;99.90;;;;;;5089969;27;20035;-73
2023/01/15 07:32:32;;;;;;;9.52;5.35;;;2.90;99.90;;;;;;5094212;28;20035;-73
2023/01/15 07:34:58;;;;;;;10.00;5.45;;;3.00;99.90;;;;;;5093979;28;20039;-73
2023/01/15 07:37:24;;;;;;;8.75;5.25;;;3.00;99.90;;;;;;5092503;28;20103;-73
2023/01/15 07:39:49;;;;;;;9.32;5.32;;;3.00;99.90;;;;;;5089269;28;20111;-73
2023/01/15 07:50:28;;;;;;;10.70;6.00;;;3.10;99.90;;;;;;5094773;27;20118;-73
2023/01/15 07:52:53;;;;;;;11.85;5.55;;;3.00;99.90;;;;;;5092835;28;20028;-75
2023/01/15 07:55:30;;;;;;;;;;;;;;;;;;;;;
2023/01/15 07:57:56;;;;;;;10.63;5.25;;;3.00;99.90;;;;;;5084938;28;20070;-73
2023/01/15 08:00:23;;;;;;;8.70;4.80;;;2.80;99.90;;;;;;5090587;27;20112;-73
2023/01/15 08:02:49;;;;;;;12.10;4.57;;;3.00;99.90;;;;;;5087227;28;20040;-72
2023/01/15 08:05:16;;;;;;;9.10;4.75;;;3.10;99.90;;;;;;5088820;28;20059;-73
2023/01/15 08:07:42;;;;;;;6.65;4.45;;;3.20;99.90;;;;;;5085520;28;20024;-72
2023/01/15 08:10:10;;;;;;;14.05;7.90;;;3.30;99.90;;;;;;5092026;28;20024;-72
2023/01/15 08:15:20;;;;;;;10.73;6.50;;;3.20;99.90;;;;;;5087807;28;20556;-72
2023/01/15 08:17:48;;;;;;;13.95;5.07;;;3.10;99.90;;;;;;5088095;28;20053;-72
2023/01/15 08:20:16;;;;;;;9.38;5.20;;;3.10;99.90;;;;;;5098284;28;20110;-72
2023/01/15 08:22:43;;;;;;;7.85;4.38;;;3.20;99.90;;;;;;5079388;28;20489;-72
2023/01/15 08:25:11;;;;;;;7.80;4.60;;;3.30;99.90;;;;;;5084555;28;20591;-71
2023/01/15 08:27:38;;;;;;;6.45;3.70;;;3.30;99.90;;;;;;5085534;28;20039;-72
2023/01/15 08:30:05;;;;;;;8.80;4.57;;;3.30;99.90;;;;;;5073300;28;20060;-73
2023/01/15 08:32:31;;;;;;;10.23;4.65;;;3.40;99.90;;;;;;5087028;28;20468;-72
2023/01/15 08:34:57;;;;;;;11.55;5.50;;;3.40;99.90;;;;;;5087148;28;20581;-72
2023/01/15 08:37:22;;;;;;;9.82;5.07;;;3.30;99.90;;;;;;5093059;28;20044;-72
2023/01/15 08:39:50;;;;;;;9.77;5.22;;;3.30;99.90;;;;;;5087249;27;20051;-72
2023/01/15 08:42:16;;;;;;;8.40;4.72;;;3.30;99.90;;;;;;5086337;28;20024;-72
2023/01/15 08:44:41;;;;;;;10.02;4.95;;;3.20;99.90;;;;;;5087288;28;20036;-72
2023/01/15 08:47:07;;;;;;;9.15;5.60;;;3.40;99.90;;;;;;5085909;27;20106;-73
2023/01/15 08:49:33;;;;;;;8.45;4.45;;;3.30;99.90;;;;;;5087779;28;20386;-72
2023/01/15 08:51:59;;;;;;;9.43;4.63;;;3.30;99.90;;;;;;5090257;28;20036;-71
2023/01/15 08:54:25;;;;;;;11.30;6.22;;;3.20;99.90;;;;;;5086075;28;20024;-72
2023/01/15 08:56:51;;;;;;;14.95;7.78;;;3.20;99.90;;;;;;5087852;28;20481;-71
2023/01/15 08:59:17;;;;;;;14.95;6.97;;;3.20;99.90;;;;;;5090244;28;20097;-72
2023/01/15 09:01:43;;;;;;;11.60;7.47;;;3.30;99.90;;;;;;5081073;28;20452;-72
2023/01/15 09:04:13;;;;;;;14.15;6.78;;;3.40;99.90;;;;;;5085714;28;20050;-72
2023/01/15 09:06:39;;;;;;;14.95;8.55;;;3.50;99.90;;;;;;5082474;28;20183;-72
2023/01/15 09:09:04;;;;;;;12.00;7.18;;;3.20;99.90;;;;;;5088778;28;20140;-72
2023/01/15 09:11:30;;;;;;;17.27;9.10;;;3.20;99.90;;;;;;5084727;28;20024;-72
2023/01/15 09:13:56;;;;;;;16.48;8.93;;;3.10;99.90;;;;;;5087745;28;20028;-72
2023/01/15 09:16:21;;;;;;;14.45;8.82;;;3.20;99.90;;;;;;5084836;28;20028;-72
2023/01/15 09:18:47;;;;;;;16.02;8.63;;;3.30;99.90;;;;;;5089328;28;20034;-72
2023/01/15 09:21:13;;;;;;;12.77;7.43;;;3.40;99.90;;;;;;5080445;28;20030;-72
2023/01/15 09:23:38;;;;;;;14.55;7.78;;;3.50;99.90;;;;;;5083168;28;20090;-72
2023/01/15 09:26:06;;;;;;;15.15;8.07;;;3.50;99.90;;;;;;5092278;28;20027;-72
2023/01/15 09:28:34;;;;;;;10.18;6.15;;;3.60;99.90;;;;;;5096679;28;20428;-72
2023/01/15 09:31:00;;;;;;;9.85;6.57;;;3.60;99.90;;;;;;5104766;28;20398;-73
2023/01/15 09:33:26;;;;;;;11.32;7.30;;;3.70;99.90;;;;;;5102891;28;20023;-72
2023/01/15 09:35:52;;;;;;;11.05;6.63;;;3.70;99.90;;;;;;5083184;28;20052;-73
2023/01/15 09:38:19;;;;;;;10.93;6.25;;;3.80;99.90;;;;;;5100710;28;20381;-71
2023/01/15 09:40:49;;;;;;;10.05;5.45;;;3.80;99.90;;;;;;5104508;28;20039;-72
2023/01/15 09:43:46;;;;;;;10.23;4.22;;;3.90;99.90;;;;;;5105218;28;20132;-72
2023/01/15 09:46:16;;;;;;;11.75;7.35;;;4.00;99.90;;;;;;5097292;28;20059;-72
2023/01/15 09:48:44;;;;;;;17.83;9.57;;;4.10;99.90;;;;;;5103054;28;20389;-72
2023/01/15 09:51:28;;;;;;;24.58;15.95;;;3.90;99.90;;;;;;5097821;27;20050;-72
2023/01/15 09:54:22;;;;;;;19.52;10.68;;;3.70;99.90;;;;;;5098776;28;20046;-72
2023/01/15 09:56:48;;;;;;;16.67;9.90;;;3.60;99.90;;;;;;5104960;27;20110;-72
2023/01/15 09:59:33;;;;;;;18.70;10.55;;;3.60;99.90;;;;;;5105570;28;20031;-72
2023/01/15 10:02:01;;;;;;;;;;;3.70;99.90;;;;;;5105502;28;20020;-72
2023/01/15 10:04:47;;;;;;;17.75;9.68;;;3.70;99.90;;;;;;5102734;28;19912;-72
2023/01/15 10:07:37;;;;;;;16.15;8.85;;;3.70;99.90;;;;;;5103620;28;20124;-72
2023/01/15 10:10:10;;;;;;;15.43;9.82;;;3.70;99.90;;;;;;5103368;28;20034;-72
2023/01/15 10:12:42;;;;;;;13.77;9.18;;;3.90;99.90;;;;;;5102246;28;20024;-72
2023/01/15 10:15:29;;;;;;;17.55;9.70;;;4.10;99.90;;;;;;5101353;28;20042;-72
2023/01/15 10:17:57;;;;;;;16.70;9.73;;;4.00;99.90;;;;;;5103138;28;20040;-72
2023/01/15 10:20:27;;;;;;;11.77;7.25;;;4.00;99.90;;;;;;5104540;28;20038;-72
2023/01/15 10:23:19;;;;;;;14.32;8.73;;;3.90;99.90;;;;;;5104779;28;20461;-73
2023/01/15 10:25:53;;;;;;;14.18;7.93;;;3.80;99.90;;;;;;5100836;28;20396;-73
2023/01/15 10:28:26;;;;;;;12.50;7.50;;;3.70;99.90;;;;;;5096889;27;20024;-72
2023/01/15 10:31:01;;;;;;;15.65;9.45;;;3.90;99.90;;;;;;5087319;28;20057;-73
2023/01/15 10:33:41;;;;;;;16.08;9.95;;;4.00;99.90;;;;;;5094155;28;20065;-73
2023/01/15 10:36:16;;;;;;;19.27;9.35;;;4.10;99.90;;;;;;5089216;28;20068;-73
2023/01/15 10:38:58;;;;;;;12.88;7.43;;;4.10;99.90;;;;;;5087447;28;20720;-73
2023/01/15 10:41:35;;;;;;;13.70;7.88;;;4.10;99.90;;;;;;5097945;27;20032;-72
2023/01/15 10:44:35;;;;;;;14.10;8.20;;;4.20;99.90;;;;;;5101449;27;20122;-73
2023/01/15 10:47:02;;;;;;;11.52;6.93;;;4.00;99.90;;;;;;5089558;28;20375;-72
2023/01/15 10:49:29;;;;;;;13.20;7.72;;;4.20;99.90;;;;;;5098604;28;22380;-73
2023/01/15 10:52:02;;;;;;;15.00;7.63;;;4.10;99.90;;;;;;5101092;28;20036;-72
2023/01/15 10:54:41;;;;;;;13.18;7.22;;;4.30;99.90;;;;;;5100337;28;20103;-73
2023/01/15 10:57:48;;;;;;;14.02;8.85;;;4.40;99.90;;;;;;5087063;28;20043;-75
2023/01/15 11:00:14;;;;;;;16.05;9.23;;;4.40;99.90;;;;;;5079009;28;20511;-73
2023/01/15 11:02:43;;;;;;;13.18;7.47;;;4.30;99.90;;;;;;5088961;28;20425;-73
2023/01/15 11:05:28;;;;;;;13.45;7.35;;;4.30;99.90;;;;;;5090081;28;20032;-73
2023/01/15 11:07:54;;;;;;;14.32;7.90;;;4.50;99.90;;;;;;5092710;28;20028;-73
2023/01/15 11:10:23;;;;;;;13.70;7.32;;;4.60;99.90;;;;;;5092242;28;20433;-73
2023/01/15 11:21:29;;;;;;;10.85;7.05;;;4.40;99.90;;;;;;5091288;27;20074;-73
2023/01/15 11:24:15;;;;;;;10.60;8.07;;;4.50;99.90;;;;;;5091219;27;20470;-73
2023/01/15 11:26:44;;;;;;;14.63;9.40;;;4.70;99.90;;;;;;5094518;27;20042;-73
2023/01/15 11:29:32;;;;;;;11.30;6.32;;;4.80;99.90;;;;;;5103896;28;20108;-73
2023/01/15 11:31:58;;;;;;;12.43;6.90;;;4.70;99.90;;;;;;5099525;28;20165;-73
2023/01/15 11:34:24;;;;;;;13.07;8.10;;;4.50;99.90;;;;;;5100761;27;20410;-73
2023/01/15 11:37:01;;;;;;;12.82;7.93;;;4.60;99.90;;;;;;5094930;28;20036;-73
2023/01/15 11:39:30;;;;;;;13.63;8.55;;;4.60;99.90;;;;;;5096070;28;20043;-72
2023/01/15 11:51:09;;;;;;;19.60;10.85;;;4.10;99.90;;;;;;5108392;27;20047;-72
2023/01/15 11:53:49;;;;;;;13.32;7.75;;;4.30;99.90;;;;;;5108629;28;20115;-72
2023/01/15 11:56:19;;;;;;;11.93;7.65;;;4.40;99.90;;;;;;5109033;28;20044;-73
2023/01/15 11:58:56;;;;;;;14.10;7.43;;;4.50;99.90;;;;;;5094053;28;20027;-73
2023/01/15 12:01:28;;;;;;;20.55;10.00;;;4.50;99.90;;;;;;5096678;28;20529;-72
2023/01/15 12:03:54;;;;;;;24.73;14.50;;;4.60;99.90;;;;;;5097298;28;20413;-73
2023/01/15 12:06:21;;;;;;;14.13;8.55;;;4.70;99.90;;;;;;5097027;28;20053;-73
2023/01/15 12:08:50;;;;;;;13.30;6.90;;;4.70;99.90;;;;;;5098059;28;20023;-73
2023/01/15 12:11:24;;;;;;;10.57;6.85;;;4.70;99.90;;;;;;5100360;27;20144;-73
2023/01/15 12:13:58;;;;;;;13.02;7.38;;;4.60;99.90;;;;;;5108412;27;20027;-74
2023/01/15 12:16:44;;;;;;;11.27;7.13;;;4.50;99.90;;;;;;5099369;28;20087;-73
2023/01/15 12:19:14;;;;;;;12.65;7.63;;;4.40;99.90;;;;;;5101668;27;20059;-73
2023/01/15 12:22:04;;;;;;;14.15;7.65;;;4.30;99.90;;;;;;5103097;28;20047;-72
2023/01/15 12:25:03;;;;;;;12.00;7.55;;;4.30;99.90;;;;;;5105131;28;20031;-74
2023/01/15 12:28:12;;;;;;;15.00;8.30;;;4.40;99.90;;;;;;5100032;28;20544;-75
2023/01/15 12:30:44;;;;;;;13.10;8.27;;;4.30;99.90;;;;;;5053461;28;20035;-72
2023/01/15 12:33:12;;;;;;;11.75;7.82;;;4.30;99.90;;;;;;5092000;28;20546;-71
2023/01/15 12:35:43;;;;;;;14.65;8.73;;;4.40;99.90;;;;;;5098017;28;20044;-71
2023/01/15 12:38:32;;;;;;;12.63;8.52;;;4.40;99.90;;;;;;5103559;28;20128;-72
2023/01/15 12:41:03;;;;;;;11.88;7.38;;;4.40;99.90;;;;;;5103071;28;20056;-72
2023/01/15 12:46:22;;;;;;;15.75;9.05;;;4.50;99.90;;;;;;5092914;28;20038;-71
2023/01/15 12:48:58;;;;;;;15.27;8.43;;;4.50;99.90;;;;;;5105039;28;20043;-72
2023/01/15 12:51:50;;;;;;;16.40;9.23;;;4.50;99.90;;;;;;5103963;27;20110;-71
2023/01/15 12:54:23;;;;;;;14.27;9.70;;;4.50;99.90;;;;;;5093689;28;20058;-72
2023/01/15 12:57:23;;;;;;;15.68;9.13;;;4.40;99.90;;;;;;5084778;28;20750;-71
2023/01/15 13:00:00;;;;;;;16.13;9.23;;;4.20;99.90;;;;;;5104473;28;20048;-71
2023/01/15 13:02:47;;;;;;;17.90;8.23;;;4.10;99.90;;;;;;5102457;27;20081;-71
2023/01/15 13:05:26;;;;;;;13.05;8.60;;;4.10;99.90;;;;;;5102554;28;20252;-71
2023/01/15 13:08:05;;;;;;;15.23;8.63;;;4.10;99.90;;;;;;5095395;27;20028;-71
2023/01/15 13:10:34;;;;;;;17.15;10.13;;;4.10;99.90;;;;;;5104234;27;20027;-71
2023/01/15 13:13:17;;;;;;;16.40;9.45;;;4.20;99.90;;;;;;5103678;28;20046;-71
2023/01/15 13:16:10;;;;;;;15.32;9.07;;;4.30;99.90;;;;;;5100853;28;20508;-70
2023/01/15 13:18:41;;;;;;;14.32;8.45;;;4.30;99.90;;;;;;5102401;27;20059;-71
2023/01/15 13:21:16;;;;;;;13.82;8.07;;;4.20;99.90;;;;;;5102732;28;20028;-70
2023/01/15 13:24:26;;;;;;;15.40;8.77;;;4.20;99.90;;;;;;5104094;28;20031;-70
2023/01/15 13:26:56;;;;;;;14.23;8.55;;;4.20;99.90;;;;;;5097221;28;20118;-71
2023/01/15 13:30:03;;;;;;;12.23;7.20;;;4.20;99.90;;;;;;5102660;28;20115;-70
2023/01/15 13:32:33;;;;;;;26.00;16.85;;;4.20;99.90;;;;;;5060822;28;20035;-71
2023/01/15 13:35:01;;;;;;;23.70;16.08;;;4.30;99.90;;;;;;5101274;28;20093;-71
2023/01/15 13:37:55;;;;;;;21.00;12.73;;;4.30;99.90;;;;;;5099352;28;20032;-71
2023/01/15 13:40:36;;;;;;;16.50;11.32;;;4.30;99.90;;;;;;5096600;28;20036;-71
2023/01/15 13:43:06;;;;;;;16.33;10.43;;;4.10;99.90;;;;;;5086371;28;20509;-72
2023/01/15 13:45:49;;;;;;;22.58;11.52;;;4.10;99.90;;;;;;5084818;28;20118;-74
2023/01/15 13:48:27;;;;;;;15.90;9.25;;;4.20;99.90;;;;;;5095695;28;20189;-72
2023/01/15 13:50:58;;;;;;;15.27;8.88;;;4.10;99.90;;;;;;5092407;28;20056;-72
2023/01/15 13:53:28;;;;;;;17.52;10.10;;;4.10;99.90;;;;;;5089637;28;20027;-71
2023/01/15 13:56:04;;;;;;;17.58;10.80;;;4.30;99.90;;;;;;5089630;28;20016;-72
2023/01/15 13:58:32;;;;;;;16.05;10.75;;;4.10;99.90;;;;;;5083058;27;20393;-72